WASR/MKW METAR and TAF weather

Enter ICAO airport designator
Station Type Date Time Source
WASR METAR UTC NOAA

Error!


Station Type Date Time Source
WASR Decoded METAR UTC NOAA

Error!

Station Type Date Time Source
WASR TAF 2013/03/11 12:00 UTC NOAA

TAF WASR 111100Z 1112/1212 00000KT 5000 HZ SCT015
TEMPO 1112/1118 4000 RA FEW013CB
BECMG 1200/1202 30012KT 9999
TEMPO 1206/1210 6000 RA FEW013CB


Example: see airport list